Aérodrome :
LOGIN :

S'inscrire | Disclaimer

   EN    FR    IT 

 










Légende :    VFR   VFR Marginal   IFR   IFR Intensif   IFR Très Intensif
Visi : 
Plafond : 
>= 8 km
>= 3000ft
5 à 8 km
1000 à 3000 ft
1500m à 5 km
500 à 1000 ft
800 à 1500m
200 à 500 ft
< 800m
< 200 ft
Symboles :   Orages  Brouillard  Fortes neiges  Fortes précipitations  Vent > 20 kt
SIGMETs :   Divers  Orages  Givrage  Turbulence  Onde Orograph.  Cendres Volcan.







- Altitude de l'aérodrome : 17 ft
- Code IATA : DND
- Voir les cartes d'approche


EGPN - Dundee

DERNIER METAR :
  • 261520Z 28021G32KT 9999 FEW020 SCT030 15/09 Q1002

METARs EXPIRÉS :
  • 261450Z 28019G32KT 9999 FEW010 SCT030 16/10 Q1002
  • 261420Z 27021KT 9999 FEW010 SCT030 16/13 Q1002
  • 261350Z 28010KT 9999 -RA FEW005 BKN020 17/13 Q1002
  • 261320Z VRB03KT 9999 FEW005 BKN012 14/13 Q1002
  • 261250Z 12004KT 9000 -RA FEW005 BKN012 13/12 Q1002

TAF TAF EGPN
Valide du 26 à 15h jusqu'au 26 à 20h UTC


261356Z 2615/2620 27015KT 9999 SCT012 BKN030
TEMPO 2615/2620 28018G28KT
PROB40
TEMPO 2615/2620 6000 -RA BKN008
Pas de NOTAMs connus pour ce terrain.
1 SIGMET publié pour la FIR Scottish (EGPX) :
 
Onde orographique forte
EGPX SIGMET 01 VALID 261540/261900 EGRR
EGPX SCOTTISH FIR SEV MTW FCST SE OF LINE N5523 W00711 - N5832 E00227 FL030/150 STNR NC=



MET'MAP, la Météo Aéronautique d'un coup d'oeil ! - Copyright ORBIFLY Décembre 2007 - Disclaimer

ORBIFLY MET'MAP TEAM :

Programmation & Développement : Alexandra Zaïnal
Conception & Développement : Baudouin d'Aumeries
Co-Programmation & Développement : Marc-Olivier Méhu
Soutien technique & logistique : Manuel Goepfert

Contact : metmap@orbifly.com




SOURCES & CREDITS :

   NOAA